sensor_id;sensor_type;location;lat;lon;timestamp;P1;durP1;ratioP1;P2;durP2;ratioP2
76204;SDS011;64986;55.672;37.628;2024-03-29T00:01:30;16.90;;;9.27;;
76204;SDS011;64986;55.672;37.628;2024-03-29T00:03:56;15.93;;;10.00;;
76204;SDS011;64986;55.672;37.628;2024-03-29T00:06:21;16.45;;;9.55;;
76204;SDS011;64986;55.672;37.628;2024-03-29T00:08:47;20.55;;;9.70;;
76204;SDS011;64986;55.672;37.628;2024-03-29T00:11:12;15.68;;;8.73;;
76204;SDS011;64986;55.672;37.628;2024-03-29T00:13:37;18.83;;;9.05;;
76204;SDS011;64986;55.672;37.628;2024-03-29T00:16:03;17.38;;;8.63;;
76204;SDS011;64986;55.672;37.628;2024-03-29T00:18:28;17.85;;;9.05;;
76204;SDS011;64986;55.672;37.628;2024-03-29T00:20:54;18.58;;;9.80;;
76204;SDS011;64986;55.672;37.628;2024-03-29T00:23:19;16.13;;;9.32;;
76204;SDS011;64986;55.672;37.628;2024-03-29T00:25:44;13.40;;;7.68;;
76204;SDS011;64986;55.672;37.628;2024-03-29T00:28:10;16.70;;;8.88;;
76204;SDS011;64986;55.672;37.628;2024-03-29T00:30:35;16.90;;;9.05;;
76204;SDS011;64986;55.672;37.628;2024-03-29T00:33:00;17.95;;;10.60;;
76204;SDS011;64986;55.672;37.628;2024-03-29T00:35:26;18.17;;;10.43;;
76204;SDS011;64986;55.672;37.628;2024-03-29T00:37:51;19.58;;;10.55;;
76204;SDS011;64986;55.672;37.628;2024-03-29T00:40:17;20.60;;;9.70;;
76204;SDS011;64986;55.672;37.628;2024-03-29T00:42:42;19.30;;;9.55;;
76204;SDS011;64986;55.672;37.628;2024-03-29T00:45:07;16.48;;;8.70;;
76204;SDS011;64986;55.672;37.628;2024-03-29T00:47:33;17.58;;;10.23;;
76204;SDS011;64986;55.672;37.628;2024-03-29T00:49:58;17.63;;;10.35;;
76204;SDS011;64986;55.672;37.628;2024-03-29T00:52:24;16.10;;;9.00;;
76204;SDS011;64986;55.672;37.628;2024-03-29T00:54:49;20.58;;;10.13;;
76204;SDS011;64986;55.672;37.628;2024-03-29T00:57:15;20.67;;;9.93;;
76204;SDS011;64986;55.672;37.628;2024-03-29T00:59:41;19.17;;;9.63;;
76204;SDS011;64986;55.672;37.628;2024-03-29T01:02:08;22.17;;;10.32;;
76204;SDS011;64986;55.672;37.628;2024-03-29T01:04:33;18.38;;;9.13;;
76204;SDS011;64986;55.672;37.628;2024-03-29T01:06:59;18.10;;;8.77;;
76204;SDS011;64986;55.672;37.628;2024-03-29T01:09:24;17.58;;;9.13;;
76204;SDS011;64986;55.672;37.628;2024-03-29T01:11:50;19.27;;;9.70;;
76204;SDS011;64986;55.672;37.628;2024-03-29T01:14:15;22.67;;;11.10;;
76204;SDS011;64986;55.672;37.628;2024-03-29T01:16:41;17.75;;;9.70;;
76204;SDS011;64986;55.672;37.628;2024-03-29T01:19:06;18.98;;;9.57;;
76204;SDS011;64986;55.672;37.628;2024-03-29T01:21:33;17.60;;;9.63;;
76204;SDS011;64986;55.672;37.628;2024-03-29T01:23:59;21.90;;;10.70;;
76204;SDS011;64986;55.672;37.628;2024-03-29T01:26:24;23.23;;;10.45;;
76204;SDS011;64986;55.672;37.628;2024-03-29T01:28:50;22.27;;;10.85;;
76204;SDS011;64986;55.672;37.628;2024-03-29T01:31:15;17.27;;;10.07;;
76204;SDS011;64986;55.672;37.628;2024-03-29T01:33:40;21.42;;;11.27;;
76204;SDS011;64986;55.672;37.628;2024-03-29T01:36:06;20.45;;;11.30;;
76204;SDS011;64986;55.672;37.628;2024-03-29T01:38:35;18.70;;;9.90;;
76204;SDS011;64986;55.672;37.628;2024-03-29T01:41:00;20.10;;;11.50;;
76204;SDS011;64986;55.672;37.628;2024-03-29T01:43:26;18.38;;;10.45;;
76204;SDS011;64986;55.672;37.628;2024-03-29T01:45:55;15.77;;;8.95;;
76204;SDS011;64986;55.672;37.628;2024-03-29T01:48:21;18.75;;;9.70;;
76204;SDS011;64986;55.672;37.628;2024-03-29T01:50:47;18.02;;;9.50;;
76204;SDS011;64986;55.672;37.628;2024-03-29T01:53:13;15.90;;;8.70;;
76204;SDS011;64986;55.672;37.628;2024-03-29T01:55:39;15.73;;;8.18;;
76204;SDS011;64986;55.672;37.628;2024-03-29T01:58:05;18.27;;;9.23;;
76204;SDS011;64986;55.672;37.628;2024-03-29T02:00:32;20.70;;;9.23;;
76204;SDS011;64986;55.672;37.628;2024-03-29T02:02:58;14.48;;;8.60;;
76204;SDS011;64986;55.672;37.628;2024-03-29T02:05:24;18.88;;;9.82;;
76204;SDS011;64986;55.672;37.628;2024-03-29T02:07:50;19.63;;;10.25;;
76204;SDS011;64986;55.672;37.628;2024-03-29T02:10:15;21.33;;;10.02;;
76204;SDS011;64986;55.672;37.628;2024-03-29T02:12:41;17.02;;;9.30;;
76204;SDS011;64986;55.672;37.628;2024-03-29T02:15:06;18.45;;;9.32;;
76204;SDS011;64986;55.672;37.628;2024-03-29T02:17:32;20.02;;;8.85;;
76204;SDS011;64986;55.672;37.628;2024-03-29T02:19:58;16.73;;;8.48;;
76204;SDS011;64986;55.672;37.628;2024-03-29T02:22:24;17.45;;;9.02;;
76204;SDS011;64986;55.672;37.628;2024-03-29T02:24:49;17.83;;;9.48;;
76204;SDS011;64986;55.672;37.628;2024-03-29T02:27:14;16.83;;;8.48;;
76204;SDS011;64986;55.672;37.628;2024-03-29T02:29:40;17.85;;;8.90;;
76204;SDS011;64986;55.672;37.628;2024-03-29T02:32:06;19.40;;;9.55;;
76204;SDS011;64986;55.672;37.628;2024-03-29T02:34:31;15.63;;;8.82;;
76204;SDS011;64986;55.672;37.628;2024-03-29T02:36:57;15.23;;;8.77;;
76204;SDS011;64986;55.672;37.628;2024-03-29T02:39:22;15.90;;;9.07;;
76204;SDS011;64986;55.672;37.628;2024-03-29T02:41:47;22.27;;;9.77;;
76204;SDS011;64986;55.672;37.628;2024-03-29T02:44:13;17.67;;;8.55;;
76204;SDS011;64986;55.672;37.628;2024-03-29T02:46:40;16.85;;;9.10;;
76204;SDS011;64986;55.672;37.628;2024-03-29T02:49:06;18.15;;;9.25;;
76204;SDS011;64986;55.672;37.628;2024-03-29T02:51:31;18.25;;;9.93;;
76204;SDS011;64986;55.672;37.628;2024-03-29T02:53:57;18.98;;;10.43;;
76204;SDS011;64986;55.672;37.628;2024-03-29T02:56:22;18.15;;;9.98;;
76204;SDS011;64986;55.672;37.628;2024-03-29T02:58:48;17.33;;;9.98;;
76204;SDS011;64986;55.672;37.628;2024-03-29T03:01:13;21.83;;;9.77;;
76204;SDS011;64986;55.672;37.628;2024-03-29T03:03:39;17.52;;;9.70;;
76204;SDS011;64986;55.672;37.628;2024-03-29T03:06:04;21.70;;;9.10;;
76204;SDS011;64986;55.672;37.628;2024-03-29T03:08:30;14.75;;;8.95;;
76204;SDS011;64986;55.672;37.628;2024-03-29T03:11:14;16.13;;;9.07;;
76204;SDS011;64986;55.672;37.628;2024-03-29T03:13:39;20.13;;;8.98;;
76204;SDS011;64986;55.672;37.628;2024-03-29T03:16:05;20.77;;;9.55;;
76204;SDS011;64986;55.672;37.628;2024-03-29T03:18:30;21.17;;;8.93;;
76204;SDS011;64986;55.672;37.628;2024-03-29T03:20:56;21.00;;;8.90;;
76204;SDS011;64986;55.672;37.628;2024-03-29T03:23:24;17.15;;;9.02;;
76204;SDS011;64986;55.672;37.628;2024-03-29T03:25:53;15.98;;;8.40;;
76204;SDS011;64986;55.672;37.628;2024-03-29T03:28:19;31.58;;;9.48;;
76204;SDS011;64986;55.672;37.628;2024-03-29T03:30:44;16.10;;;9.40;;
76204;SDS011;64986;55.672;37.628;2024-03-29T03:33:10;22.40;;;9.98;;
76204;SDS011;64986;55.672;37.628;2024-03-29T03:35:35;15.70;;;8.60;;
76204;SDS011;64986;55.672;37.628;2024-03-29T03:38:00;16.35;;;8.07;;
76204;SDS011;64986;55.672;37.628;2024-03-29T03:40:26;18.17;;;8.68;;
76204;SDS011;64986;55.672;37.628;2024-03-29T03:42:51;18.73;;;9.57;;
76204;SDS011;64986;55.672;37.628;2024-03-29T03:45:16;21.75;;;8.80;;
76204;SDS011;64986;55.672;37.628;2024-03-29T03:47:42;24.67;;;9.25;;
76204;SDS011;64986;55.672;37.628;2024-03-29T03:50:07;17.45;;;8.50;;
76204;SDS011;64986;55.672;37.628;2024-03-29T03:52:33;14.48;;;8.18;;
76204;SDS011;64986;55.672;37.628;2024-03-29T03:54:58;16.70;;;8.90;;
76204;SDS011;64986;55.672;37.628;2024-03-29T03:57:23;19.52;;;8.88;;
76204;SDS011;64986;55.672;37.628;2024-03-29T03:59:49;17.15;;;9.13;;
76204;SDS011;64986;55.672;37.628;2024-03-29T04:02:15;14.95;;;8.30;;
76204;SDS011;64986;55.672;37.628;2024-03-29T04:04:40;24.00;;;10.00;;
76204;SDS011;64986;55.672;37.628;2024-03-29T04:07:05;22.17;;;9.38;;
76204;SDS011;64986;55.672;37.628;2024-03-29T04:09:31;18.40;;;8.40;;
76204;SDS011;64986;55.672;37.628;2024-03-29T04:11:56;17.15;;;9.20;;
76204;SDS011;64986;55.672;37.628;2024-03-29T04:14:22;15.13;;;8.00;;
76204;SDS011;64986;55.672;37.628;2024-03-29T04:16:47;17.13;;;8.70;;
76204;SDS011;64986;55.672;37.628;2024-03-29T04:19:13;16.60;;;7.50;;
76204;SDS011;64986;55.672;37.628;2024-03-29T04:21:38;22.05;;;10.50;;
76204;SDS011;64986;55.672;37.628;2024-03-29T04:24:03;27.20;;;11.10;;
76204;SDS011;64986;55.672;37.628;2024-03-29T04:26:32;17.30;;;8.30;;
76204;SDS011;64986;55.672;37.628;2024-03-29T04:28:57;18.48;;;9.25;;
76204;SDS011;64986;55.672;37.628;2024-03-29T04:31:23;19.35;;;9.70;;
76204;SDS011;64986;55.672;37.628;2024-03-29T04:33:48;21.63;;;10.07;;
76204;SDS011;64986;55.672;37.628;2024-03-29T04:36:14;21.27;;;9.93;;
76204;SDS011;64986;55.672;37.628;2024-03-29T04:38:39;22.92;;;9.85;;
76204;SDS011;64986;55.672;37.628;2024-03-29T04:41:05;22.27;;;8.98;;
76204;SDS011;64986;55.672;37.628;2024-03-29T04:43:30;26.25;;;8.85;;
76204;SDS011;64986;55.672;37.628;2024-03-29T04:46:09;17.25;;;9.85;;
76204;SDS011;64986;55.672;37.628;2024-03-29T04:48:35;18.85;;;9.02;;
76204;SDS011;64986;55.672;37.628;2024-03-29T04:51:00;23.27;;;9.73;;
76204;SDS011;64986;55.672;37.628;2024-03-29T04:53:26;18.30;;;10.45;;
76204;SDS011;64986;55.672;37.628;2024-03-29T04:55:54;15.80;;;8.23;;
76204;SDS011;64986;55.672;37.628;2024-03-29T04:58:21;19.15;;;8.23;;
76204;SDS011;64986;55.672;37.628;2024-03-29T05:00:46;18.38;;;7.95;;
76204;SDS011;64986;55.672;37.628;2024-03-29T05:03:11;17.27;;;8.52;;
76204;SDS011;64986;55.672;37.628;2024-03-29T05:05:37;17.17;;;8.88;;
76204;SDS011;64986;55.672;37.628;2024-03-29T05:08:02;18.08;;;8.70;;
76204;SDS011;64986;55.672;37.628;2024-03-29T05:10:27;19.83;;;8.60;;
76204;SDS011;64986;55.672;37.628;2024-03-29T05:12:53;20.35;;;7.60;;
76204;SDS011;64986;55.672;37.628;2024-03-29T05:15:19;19.15;;;7.60;;
76204;SDS011;64986;55.672;37.628;2024-03-29T05:17:44;17.60;;;7.60;;
76204;SDS011;64986;55.672;37.628;2024-03-29T05:20:10;13.88;;;7.30;;
76204;SDS011;64986;55.672;37.628;2024-03-29T05:22:36;17.60;;;7.95;;
76204;SDS011;64986;55.672;37.628;2024-03-29T05:25:01;16.88;;;8.75;;
76204;SDS011;64986;55.672;37.628;2024-03-29T05:27:26;15.75;;;7.30;;
76204;SDS011;64986;55.672;37.628;2024-03-29T05:29:52;15.70;;;8.13;;
76204;SDS011;64986;55.672;37.628;2024-03-29T05:32:17;20.05;;;8.07;;
76204;SDS011;64986;55.672;37.628;2024-03-29T05:34:43;15.48;;;8.23;;
76204;SDS011;64986;55.672;37.628;2024-03-29T05:37:09;11.10;;;7.53;;
76204;SDS011;64986;55.672;37.628;2024-03-29T05:39:35;17.60;;;7.28;;
76204;SDS011;64986;55.672;37.628;2024-03-29T05:42:00;14.73;;;8.52;;
76204;SDS011;64986;55.672;37.628;2024-03-29T05:44:27;21.83;;;8.68;;
76204;SDS011;64986;55.672;37.628;2024-03-29T05:46:52;16.27;;;8.63;;
76204;SDS011;64986;55.672;37.628;2024-03-29T05:49:17;12.50;;;7.45;;
76204;SDS011;64986;55.672;37.628;2024-03-29T05:51:43;20.85;;;8.02;;
76204;SDS011;64986;55.672;37.628;2024-03-29T05:54:08;14.55;;;7.78;;
76204;SDS011;64986;55.672;37.628;2024-03-29T05:56:34;20.17;;;8.10;;
76204;SDS011;64986;55.672;37.628;2024-03-29T05:58:59;48.30;;;11.07;;
76204;SDS011;64986;55.672;37.628;2024-03-29T06:01:24;20.52;;;6.18;;
76204;SDS011;64986;55.672;37.628;2024-03-29T06:03:50;12.75;;;6.05;;
76204;SDS011;64986;55.672;37.628;2024-03-29T06:06:19;14.18;;;6.00;;
76204;SDS011;64986;55.672;37.628;2024-03-29T06:08:49;11.18;;;4.75;;
76204;SDS011;64986;55.672;37.628;2024-03-29T06:11:14;15.48;;;6.97;;
76204;SDS011;64986;55.672;37.628;2024-03-29T06:13:39;17.88;;;7.55;;
76204;SDS011;64986;55.672;37.628;2024-03-29T06:16:21;10.13;;;6.05;;
76204;SDS011;64986;55.672;37.628;2024-03-29T06:19:05;14.43;;;6.32;;
76204;SDS011;64986;55.672;37.628;2024-03-29T06:21:30;13.15;;;6.88;;
76204;SDS011;64986;55.672;37.628;2024-03-29T06:24:07;12.80;;;6.55;;
76204;SDS011;64986;55.672;37.628;2024-03-29T06:26:32;12.52;;;6.60;;
76204;SDS011;64986;55.672;37.628;2024-03-29T06:28:58;27.33;;;7.10;;
76204;SDS011;64986;55.672;37.628;2024-03-29T06:31:23;14.35;;;6.30;;
76204;SDS011;64986;55.672;37.628;2024-03-29T06:33:48;17.75;;;5.95;;
76204;SDS011;64986;55.672;37.628;2024-03-29T06:36:14;18.38;;;6.53;;
76204;SDS011;64986;55.672;37.628;2024-03-29T06:38:39;18.40;;;6.28;;
76204;SDS011;64986;55.672;37.628;2024-03-29T06:41:05;13.25;;;5.47;;
76204;SDS011;64986;55.672;37.628;2024-03-29T06:43:30;13.38;;;5.57;;
76204;SDS011;64986;55.672;37.628;2024-03-29T06:45:55;13.98;;;6.50;;
76204;SDS011;64986;55.672;37.628;2024-03-29T06:48:22;14.93;;;6.28;;
76204;SDS011;64986;55.672;37.628;2024-03-29T06:50:48;9.48;;;5.85;;
76204;SDS011;64986;55.672;37.628;2024-03-29T06:53:14;11.07;;;5.32;;
76204;SDS011;64986;55.672;37.628;2024-03-29T06:55:40;14.27;;;7.43;;
76204;SDS011;64986;55.672;37.628;2024-03-29T06:58:05;20.88;;;7.22;;
76204;SDS011;64986;55.672;37.628;2024-03-29T07:00:31;16.75;;;6.30;;
76204;SDS011;64986;55.672;37.628;2024-03-29T07:02:56;16.48;;;7.45;;
76204;SDS011;64986;55.672;37.628;2024-03-29T07:05:21;14.35;;;6.28;;
76204;SDS011;64986;55.672;37.628;2024-03-29T07:07:47;9.35;;;5.63;;
76204;SDS011;64986;55.672;37.628;2024-03-29T07:10:12;19.70;;;6.32;;
76204;SDS011;64986;55.672;37.628;2024-03-29T07:12:38;13.27;;;6.65;;
76204;SDS011;64986;55.672;37.628;2024-03-29T07:15:03;10.90;;;6.28;;
76204;SDS011;64986;55.672;37.628;2024-03-29T07:17:29;15.88;;;7.65;;
76204;SDS011;64986;55.672;37.628;2024-03-29T07:19:54;14.98;;;6.63;;
76204;SDS011;64986;55.672;37.628;2024-03-29T07:22:20;19.05;;;8.50;;
76204;SDS011;64986;55.672;37.628;2024-03-29T07:24:45;16.92;;;7.50;;
76204;SDS011;64986;55.672;37.628;2024-03-29T07:27:11;18.08;;;7.38;;
76204;SDS011;64986;55.672;37.628;2024-03-29T07:29:38;12.90;;;6.05;;
76204;SDS011;64986;55.672;37.628;2024-03-29T07:32:03;16.48;;;8.52;;
76204;SDS011;64986;55.672;37.628;2024-03-29T07:34:29;20.02;;;7.05;;
76204;SDS011;64986;55.672;37.628;2024-03-29T07:36:54;13.98;;;6.45;;
76204;SDS011;64986;55.672;37.628;2024-03-29T07:39:20;21.23;;;7.72;;
76204;SDS011;64986;55.672;37.628;2024-03-29T07:41:45;15.23;;;7.03;;
76204;SDS011;64986;55.672;37.628;2024-03-29T07:44:11;15.10;;;6.32;;
76204;SDS011;64986;55.672;37.628;2024-03-29T07:46:36;13.02;;;6.95;;
76204;SDS011;64986;55.672;37.628;2024-03-29T07:49:03;15.52;;;7.50;;
76204;SDS011;64986;55.672;37.628;2024-03-29T07:51:29;16.75;;;7.90;;
76204;SDS011;64986;55.672;37.628;2024-03-29T07:53:54;22.05;;;8.88;;
76204;SDS011;64986;55.672;37.628;2024-03-29T07:56:20;21.13;;;8.65;;
76204;SDS011;64986;55.672;37.628;2024-03-29T07:58:49;15.85;;;8.43;;
76204;SDS011;64986;55.672;37.628;2024-03-29T08:01:21;13.80;;;8.73;;
76204;SDS011;64986;55.672;37.628;2024-03-29T08:03:47;11.20;;;7.25;;
76204;SDS011;64986;55.672;37.628;2024-03-29T08:06:12;14.60;;;6.85;;
76204;SDS011;64986;55.672;37.628;2024-03-29T08:08:38;16.35;;;8.35;;
76204;SDS011;64986;55.672;37.628;2024-03-29T08:11:03;15.55;;;8.57;;
76204;SDS011;64986;55.672;37.628;2024-03-29T08:13:28;18.10;;;8.48;;
76204;SDS011;64986;55.672;37.628;2024-03-29T08:15:57;21.15;;;8.95;;
76204;SDS011;64986;55.672;37.628;2024-03-29T08:18:26;18.20;;;8.15;;
76204;SDS011;64986;55.672;37.628;2024-03-29T08:20:52;24.70;;;10.32;;
76204;SDS011;64986;55.672;37.628;2024-03-29T08:23:19;14.25;;;7.25;;
76204;SDS011;64986;55.672;37.628;2024-03-29T08:25:44;14.00;;;8.85;;
76204;SDS011;64986;55.672;37.628;2024-03-29T08:28:10;16.52;;;8.40;;
76204;SDS011;64986;55.672;37.628;2024-03-29T08:30:36;15.93;;;8.25;;
76204;SDS011;64986;55.672;37.628;2024-03-29T08:33:01;16.23;;;8.52;;
76204;SDS011;64986;55.672;37.628;2024-03-29T08:35:30;10.85;;;6.60;;
76204;SDS011;64986;55.672;37.628;2024-03-29T08:37:55;15.52;;;7.75;;
76204;SDS011;64986;55.672;37.628;2024-03-29T08:40:21;15.90;;;7.88;;
76204;SDS011;64986;55.672;37.628;2024-03-29T08:42:47;17.30;;;6.85;;
76204;SDS011;64986;55.672;37.628;2024-03-29T08:45:12;15.00;;;7.35;;
76204;SDS011;64986;55.672;37.628;2024-03-29T08:47:38;14.88;;;7.93;;
76204;SDS011;64986;55.672;37.628;2024-03-29T08:50:03;11.90;;;6.25;;
76204;SDS011;64986;55.672;37.628;2024-03-29T08:52:29;15.50;;;7.95;;
76204;SDS011;64986;55.672;37.628;2024-03-29T08:54:54;16.67;;;8.13;;
76204;SDS011;64986;55.672;37.628;2024-03-29T08:57:23;10.10;;;6.55;;
76204;SDS011;64986;55.672;37.628;2024-03-29T08:59:51;10.93;;;7.05;;
76204;SDS011;64986;55.672;37.628;2024-03-29T09:02:17;10.77;;;6.50;;
76204;SDS011;64986;55.672;37.628;2024-03-29T09:04:43;16.58;;;7.68;;
76204;SDS011;64986;55.672;37.628;2024-03-29T09:07:09;13.40;;;7.50;;
76204;SDS011;64986;55.672;37.628;2024-03-29T09:09:34;16.23;;;7.80;;
76204;SDS011;64986;55.672;37.628;2024-03-29T09:12:00;12.07;;;6.72;;
76204;SDS011;64986;55.672;37.628;2024-03-29T09:14:25;12.35;;;8.02;;
76204;SDS011;64986;55.672;37.628;2024-03-29T09:16:50;25.13;;;7.95;;
76204;SDS011;64986;55.672;37.628;2024-03-29T09:19:16;15.95;;;9.07;;
76204;SDS011;64986;55.672;37.628;2024-03-29T09:21:41;12.95;;;7.60;;
76204;SDS011;64986;55.672;37.628;2024-03-29T09:24:07;15.70;;;7.28;;
76204;SDS011;64986;55.672;37.628;2024-03-29T09:26:32;16.02;;;8.50;;
76204;SDS011;64986;55.672;37.628;2024-03-29T09:28:58;12.90;;;8.25;;
76204;SDS011;64986;55.672;37.628;2024-03-29T09:31:23;11.45;;;7.45;;
76204;SDS011;64986;55.672;37.628;2024-03-29T09:33:49;16.08;;;6.80;;
76204;SDS011;64986;55.672;37.628;2024-03-29T09:36:21;11.90;;;7.55;;
76204;SDS011;64986;55.672;37.628;2024-03-29T09:38:48;17.25;;;9.93;;
76204;SDS011;64986;55.672;37.628;2024-03-29T09:41:14;17.77;;;8.52;;
76204;SDS011;64986;55.672;37.628;2024-03-29T09:43:41;11.05;;;7.63;;
76204;SDS011;64986;55.672;37.628;2024-03-29T09:46:08;13.05;;;7.72;;
76204;SDS011;64986;55.672;37.628;2024-03-29T09:48:33;13.00;;;7.68;;
76204;SDS011;64986;55.672;37.628;2024-03-29T09:51:08;9.90;;;6.65;;
76204;SDS011;64986;55.672;37.628;2024-03-29T09:53:34;12.77;;;7.50;;
76204;SDS011;64986;55.672;37.628;2024-03-29T09:55:59;14.63;;;7.15;;
76204;SDS011;64986;55.672;37.628;2024-03-29T09:58:25;12.88;;;8.13;;
76204;SDS011;64986;55.672;37.628;2024-03-29T10:00:50;12.80;;;7.57;;
76204;SDS011;64986;55.672;37.628;2024-03-29T10:03:16;12.02;;;7.13;;
76204;SDS011;64986;55.672;37.628;2024-03-29T10:05:45;15.10;;;7.57;;
76204;SDS011;64986;55.672;37.628;2024-03-29T10:08:11;16.63;;;8.05;;
76204;SDS011;64986;55.672;37.628;2024-03-29T10:10:36;12.93;;;8.30;;
76204;SDS011;64986;55.672;37.628;2024-03-29T10:13:02;19.67;;;8.35;;
76204;SDS011;64986;55.672;37.628;2024-03-29T10:15:28;14.05;;;8.30;;
76204;SDS011;64986;55.672;37.628;2024-03-29T10:17:54;13.68;;;8.32;;
76204;SDS011;64986;55.672;37.628;2024-03-29T10:20:19;20.75;;;10.52;;
76204;SDS011;64986;55.672;37.628;2024-03-29T10:22:46;21.33;;;10.05;;
76204;SDS011;64986;55.672;37.628;2024-03-29T10:25:14;22.35;;;9.40;;
76204;SDS011;64986;55.672;37.628;2024-03-29T10:27:40;26.65;;;10.85;;
76204;SDS011;64986;55.672;37.628;2024-03-29T10:30:09;20.13;;;10.23;;
76204;SDS011;64986;55.672;37.628;2024-03-29T10:32:36;21.05;;;10.07;;
76204;SDS011;64986;55.672;37.628;2024-03-29T10:35:02;17.55;;;9.82;;
76204;SDS011;64986;55.672;37.628;2024-03-29T10:37:28;18.00;;;9.55;;
76204;SDS011;64986;55.672;37.628;2024-03-29T10:39:54;16.35;;;9.52;;
76204;SDS011;64986;55.672;37.628;2024-03-29T10:42:21;20.00;;;9.20;;
76204;SDS011;64986;55.672;37.628;2024-03-29T10:44:50;20.25;;;9.43;;
76204;SDS011;64986;55.672;37.628;2024-03-29T10:47:19;16.15;;;10.05;;
76204;SDS011;64986;55.672;37.628;2024-03-29T10:49:49;20.67;;;10.02;;
76204;SDS011;64986;55.672;37.628;2024-03-29T10:52:16;15.27;;;9.82;;
76204;SDS011;64986;55.672;37.628;2024-03-29T10:54:42;13.48;;;8.43;;
76204;SDS011;64986;55.672;37.628;2024-03-29T10:57:10;25.38;;;9.35;;
76204;SDS011;64986;55.672;37.628;2024-03-29T10:59:47;12.82;;;8.85;;
76204;SDS011;64986;55.672;37.628;2024-03-29T11:02:13;21.90;;;10.60;;
76204;SDS011;64986;55.672;37.628;2024-03-29T11:04:43;21.65;;;9.55;;
76204;SDS011;64986;55.672;37.628;2024-03-29T11:07:13;18.63;;;9.18;;
76204;SDS011;64986;55.672;37.628;2024-03-29T11:09:39;21.15;;;9.70;;
76204;SDS011;64986;55.672;37.628;2024-03-29T11:12:05;23.98;;;11.68;;
76204;SDS011;64986;55.672;37.628;2024-03-29T11:14:42;21.75;;;9.23;;
76204;SDS011;64986;55.672;37.628;2024-03-29T11:17:11;26.00;;;11.35;;
76204;SDS011;64986;55.672;37.628;2024-03-29T11:19:39;19.00;;;11.60;;
76204;SDS011;64986;55.672;37.628;2024-03-29T11:22:04;22.13;;;9.93;;
76204;SDS011;64986;55.672;37.628;2024-03-29T11:24:30;12.82;;;8.43;;
76204;SDS011;64986;55.672;37.628;2024-03-29T11:26:57;21.73;;;10.40;;
76204;SDS011;64986;55.672;37.628;2024-03-29T11:29:22;25.60;;;10.32;;
76204;SDS011;64986;55.672;37.628;2024-03-29T11:31:48;22.60;;;11.20;;
76204;SDS011;64986;55.672;37.628;2024-03-29T11:34:21;20.98;;;9.20;;
76204;SDS011;64986;55.672;37.628;2024-03-29T11:36:46;24.65;;;9.27;;
76204;SDS011;64986;55.672;37.628;2024-03-29T11:39:21;19.23;;;9.65;;
76204;SDS011;64986;55.672;37.628;2024-03-29T11:41:47;35.58;;;11.48;;
76204;SDS011;64986;55.672;37.628;2024-03-29T11:44:15;24.40;;;9.90;;
76204;SDS011;64986;55.672;37.628;2024-03-29T11:46:44;24.83;;;9.38;;
76204;SDS011;64986;55.672;37.628;2024-03-29T11:49:12;17.27;;;9.73;;
76204;SDS011;64986;55.672;37.628;2024-03-29T11:51:40;16.58;;;8.60;;
76204;SDS011;64986;55.672;37.628;2024-03-29T11:54:06;19.77;;;9.50;;
76204;SDS011;64986;55.672;37.628;2024-03-29T11:56:32;15.77;;;8.38;;
76204;SDS011;64986;55.672;37.628;2024-03-29T11:58:57;27.60;;;10.75;;
76204;SDS011;64986;55.672;37.628;2024-03-29T12:01:28;19.75;;;9.95;;
76204;SDS011;64986;55.672;37.628;2024-03-29T12:03:58;19.20;;;9.75;;
76204;SDS011;64986;55.672;37.628;2024-03-29T12:06:24;17.45;;;9.48;;
76204;SDS011;64986;55.672;37.628;2024-03-29T12:08:50;18.90;;;10.75;;
76204;SDS011;64986;55.672;37.628;2024-03-29T12:11:18;18.25;;;9.93;;
76204;SDS011;64986;55.672;37.628;2024-03-29T12:13:44;18.58;;;8.90;;
76204;SDS011;64986;55.672;37.628;2024-03-29T12:16:10;14.18;;;8.98;;
76204;SDS011;64986;55.672;37.628;2024-03-29T12:18:35;15.02;;;8.13;;
76204;SDS011;64986;55.672;37.628;2024-03-29T12:21:01;19.67;;;9.98;;
76204;SDS011;64986;55.672;37.628;2024-03-29T12:23:27;14.85;;;9.60;;
76204;SDS011;64986;55.672;37.628;2024-03-29T12:25:54;24.70;;;9.80;;
76204;SDS011;64986;55.672;37.628;2024-03-29T12:28:23;20.23;;;11.45;;
76204;SDS011;64986;55.672;37.628;2024-03-29T12:30:49;17.90;;;9.95;;
76204;SDS011;64986;55.672;37.628;2024-03-29T12:33:16;19.25;;;10.00;;
76204;SDS011;64986;55.672;37.628;2024-03-29T12:35:46;17.42;;;10.45;;
76204;SDS011;64986;55.672;37.628;2024-03-29T12:38:17;17.70;;;9.60;;
76204;SDS011;64986;55.672;37.628;2024-03-29T12:40:48;13.68;;;9.45;;
76204;SDS011;64986;55.672;37.628;2024-03-29T12:43:20;14.25;;;9.70;;
76204;SDS011;64986;55.672;37.628;2024-03-29T12:45:47;21.58;;;10.27;;
76204;SDS011;64986;55.672;37.628;2024-03-29T12:48:15;14.73;;;8.68;;
76204;SDS011;64986;55.672;37.628;2024-03-29T12:50:43;22.95;;;11.95;;
76204;SDS011;64986;55.672;37.628;2024-03-29T12:53:10;16.95;;;10.63;;
76204;SDS011;64986;55.672;37.628;2024-03-29T12:55:37;17.33;;;9.77;;
76204;SDS011;64986;55.672;37.628;2024-03-29T12:58:07;20.13;;;9.75;;
76204;SDS011;64986;55.672;37.628;2024-03-29T13:00:36;22.85;;;9.63;;
76204;SDS011;64986;55.672;37.628;2024-03-29T13:03:02;25.00;;;10.52;;
76204;SDS011;64986;55.672;37.628;2024-03-29T13:05:28;14.52;;;9.27;;
76204;SDS011;64986;55.672;37.628;2024-03-29T13:10:29;14.18;;;9.48;;
76204;SDS011;64986;55.672;37.628;2024-03-29T13:12:55;12.82;;;8.45;;
76204;SDS011;64986;55.672;37.628;2024-03-29T13:15:24;23.77;;;10.55;;
76204;SDS011;64986;55.672;37.628;2024-03-29T13:17:51;23.80;;;10.93;;
76204;SDS011;64986;55.672;37.628;2024-03-29T13:20:18;23.85;;;12.60;;
76204;SDS011;64986;55.672;37.628;2024-03-29T13:22:44;23.10;;;11.13;;
76204;SDS011;64986;55.672;37.628;2024-03-29T13:25:12;16.58;;;9.50;;
76204;SDS011;64986;55.672;37.628;2024-03-29T13:27:43;23.25;;;10.63;;
76204;SDS011;64986;55.672;37.628;2024-03-29T13:30:10;17.23;;;9.73;;
76204;SDS011;64986;55.672;37.628;2024-03-29T13:32:40;21.50;;;9.90;;
76204;SDS011;64986;55.672;37.628;2024-03-29T13:35:07;20.33;;;10.35;;
76204;SDS011;64986;55.672;37.628;2024-03-29T13:37:39;36.00;;;11.85;;
76204;SDS011;64986;55.672;37.628;2024-03-29T13:40:08;17.50;;;10.27;;
76204;SDS011;64986;55.672;37.628;2024-03-29T13:42:37;24.52;;;10.52;;
76204;SDS011;64986;55.672;37.628;2024-03-29T13:45:03;23.83;;;10.48;;
76204;SDS011;64986;55.672;37.628;2024-03-29T13:47:29;17.52;;;10.23;;
76204;SDS011;64986;55.672;37.628;2024-03-29T13:49:54;23.80;;;9.95;;
76204;SDS011;64986;55.672;37.628;2024-03-29T13:52:22;20.15;;;10.25;;
76204;SDS011;64986;55.672;37.628;2024-03-29T13:54:47;19.63;;;11.80;;
76204;SDS011;64986;55.672;37.628;2024-03-29T13:57:13;23.00;;;17.15;;
76204;SDS011;64986;55.672;37.628;2024-03-29T13:59:38;28.88;;;13.40;;
76204;SDS011;64986;55.672;37.628;2024-03-29T14:02:04;21.65;;;10.48;;
76204;SDS011;64986;55.672;37.628;2024-03-29T14:04:30;19.48;;;10.02;;
76204;SDS011;64986;55.672;37.628;2024-03-29T14:06:56;21.27;;;10.13;;
76204;SDS011;64986;55.672;37.628;2024-03-29T14:09:21;16.50;;;8.95;;
76204;SDS011;64986;55.672;37.628;2024-03-29T14:11:47;30.00;;;11.23;;
76204;SDS011;64986;55.672;37.628;2024-03-29T14:14:12;21.15;;;9.43;;
76204;SDS011;64986;55.672;37.628;2024-03-29T14:16:38;14.18;;;9.57;;